Time;durP1;ratioP1;P1;durP2;ratioP2;P2;SDS_P1;SDS_P2;PMS_P1;PMS_P2;Temp;Humidity;BMP_temperature;BMP_pressure;BME280_temperature;BME280_humidity;BME280_pressure;Samples;Min_cycle;Max_cycle;Signal;HPM_P1;HPM_P2
2023/03/23 00:03:03;;;;;;;9.60;5.93;;;;;;;;;;10352758;28;20026;-51
2023/03/23 00:08:04;;;;;;;13.13;5.93;;;;;;;;;;10372127;28;20105;-52
2023/03/23 00:13:05;;;;;;;8.65;5.78;;;;;;;;;;10379739;28;20033;-53
2023/03/23 00:18:05;;;;;;;9.77;5.50;;;;;;;;;;10373742;28;20034;-50
2023/03/23 00:23:07;;;;;;;7.30;5.25;;;;;;;;;;10374300;28;20037;-54
2023/03/23 00:28:08;;;;;;;9.07;5.97;;;;;;;;;;10368372;28;20167;-53
2023/03/23 00:33:12;;;;;;;11.77;5.20;;;;;;;;;;10341867;28;20144;-53
2023/03/23 00:38:13;;;;;;;11.80;5.57;;;;;;;;;;10351891;28;20026;-52
2023/03/23 00:43:17;;;;;;;9.13;4.95;;;;;;;;;;10348680;28;20155;-51
2023/03/23 00:48:21;;;;;;;10.20;5.43;;;;;;;;;;10363473;28;20042;-54
2023/03/23 00:53:22;;;;;;;9.65;5.78;;;;;;;;;;10359612;28;20048;-52
2023/03/23 00:58:23;;;;;;;14.50;5.22;;;;;;;;;;10356394;28;20509;-55
2023/03/23 01:03:25;;;;;;;9.45;5.38;;;;;;;;;;10359371;28;20496;-51
2023/03/23 01:08:27;;;;;;;9.40;5.13;;;;;;;;;;10357257;28;20139;-53
2023/03/23 01:13:27;;;;;;;8.73;6.05;;;;;;;;;;10343826;28;20083;-53
2023/03/23 01:18:28;;;;;;;6.90;5.13;;;;;;;;;;10357440;28;20064;-53
2023/03/23 01:23:29;;;;;;;7.45;5.35;;;;;;;;;;10355141;28;20026;-51
2023/03/23 01:28:30;;;;;;;8.32;5.55;;;;;;;;;;10368875;28;20485;-53
2023/03/23 01:33:32;;;;;;;8.02;5.50;;;;;;;;;;10362631;28;20045;-53
2023/03/23 01:38:34;;;;;;;7.00;5.25;;;;;;;;;;10354589;28;20093;-53
2023/03/23 01:43:36;;;;;;;6.18;4.53;;;;;;;;;;10346651;28;20493;-52
2023/03/23 01:48:37;;;;;;;8.20;5.45;;;;;;;;;;10351058;28;20433;-52
2023/03/23 01:53:46;;;;;;;5.68;4.72;;;;;;;;;;10344297;28;20046;-54
2023/03/23 01:58:47;;;;;;;8.47;5.30;;;;;;;;;;10345126;28;20080;-53
2023/03/23 02:03:48;;;;;;;7.82;5.32;;;;;;;;;;10347135;28;20468;-54
2023/03/23 02:08:52;;;;;;;6.65;4.93;;;;;;;;;;10351729;28;20053;-54
2023/03/23 02:13:53;;;;;;;6.63;5.18;;;;;;;;;;10356556;28;20033;-54
2023/03/23 02:19:06;;;;;;;5.85;5.25;;;;;;;;;;10336680;28;20422;-53
2023/03/23 02:24:53;;;;;;;8.82;5.13;;;;;;;;;;10357394;28;20029;-52
2023/03/23 02:30:18;;;;;;;9.13;5.50;;;;;;;;;;10357069;28;20120;-52
2023/03/23 02:35:30;;;;;;;6.88;4.93;;;;;;;;;;10362869;28;20075;-54
2023/03/23 02:41:02;;;;;;;5.70;5.00;;;;;;;;;;10341160;28;20030;-53
2023/03/23 02:46:07;;;;;;;6.45;4.63;;;;;;;;;;10358077;28;20077;-56
2023/03/23 02:51:10;;;;;;;7.57;4.93;;;;;;;;;;10335166;28;20065;-55
2023/03/23 02:56:11;;;;;;;6.35;4.70;;;;;;;;;;10326357;28;20412;-55
2023/03/23 03:01:36;;;;;;;6.88;5.00;;;;;;;;;;10338026;28;20038;-52
2023/03/23 03:06:49;;;;;;;12.32;4.97;;;;;;;;;;10350664;28;20032;-53
2023/03/23 03:11:55;;;;;;;8.57;4.55;;;;;;;;;;10364685;28;20026;-52
2023/03/23 03:17:23;;;;;;;6.45;5.05;;;;;;;;;;10362156;28;20414;-52
2023/03/23 03:22:28;;;;;;;5.33;4.37;;;;;;;;;;10362918;28;20108;-52
2023/03/23 03:27:29;;;;;;;10.55;4.45;;;;;;;;;;10332022;28;20337;-52
2023/03/23 03:32:41;;;;;;;7.72;4.57;;;;;;;;;;10345959;28;20312;-53
2023/03/23 03:37:42;;;;;;;5.72;4.25;;;;;;;;;;10357333;28;20403;-55
2023/03/23 03:42:45;;;;;;;6.90;4.22;;;;;;;;;;10371748;28;20022;-52
2023/03/23 03:47:46;;;;;;;5.18;4.40;;;;;;;;;;10364074;28;20046;-52
2023/03/23 03:52:46;;;;;;;6.45;4.90;;;;;;;;;;10360767;28;20422;-55
2023/03/23 03:57:48;;;;;;;5.50;4.35;;;;;;;;;;10374728;28;20040;-53
2023/03/23 04:02:54;;;;;;;8.10;4.05;;;;;;;;;;10371128;28;20053;-51
2023/03/23 04:08:01;;;;;;;5.10;4.50;;;;;;;;;;10359180;28;20064;-53
2023/03/23 04:13:04;;;;;;;4.95;4.15;;;;;;;;;;10364823;28;20038;-53
2023/03/23 04:18:05;;;;;;;5.75;4.82;;;;;;;;;;10355255;28;20030;-55
2023/03/23 04:23:06;;;;;;;5.80;4.63;;;;;;;;;;10362869;28;20038;-52
2023/03/23 04:28:06;;;;;;;8.35;4.35;;;;;;;;;;10354268;28;20041;-52
2023/03/23 04:33:07;;;;;;;5.85;4.35;;;;;;;;;;10362775;28;20030;-52
2023/03/23 04:38:09;;;;;;;6.18;4.25;;;;;;;;;;10352914;28;20061;-53
2023/03/23 04:43:12;;;;;;;5.18;4.18;;;;;;;;;;10363647;28;20038;-52
2023/03/23 04:48:13;;;;;;;5.50;4.30;;;;;;;;;;10360700;28;20501;-52
2023/03/23 04:53:15;;;;;;;6.18;4.40;;;;;;;;;;10350900;28;20049;-53
2023/03/23 04:58:16;;;;;;;5.28;4.18;;;;;;;;;;10382135;28;20022;-52
2023/03/23 05:03:18;;;;;;;4.88;4.10;;;;;;;;;;10371808;28;20095;-53
2023/03/23 05:08:26;;;;;;;5.25;3.92;;;;;;;;;;10374336;28;20064;-53
2023/03/23 05:13:28;;;;;;;4.78;4.22;;;;;;;;;;10368876;28;20067;-51
2023/03/23 05:18:28;;;;;;;5.82;4.05;;;;;;;;;;10367225;28;20647;-52
2023/03/23 05:23:30;;;;;;;5.22;4.30;;;;;;;;;;10348673;28;20265;-51
2023/03/23 05:28:31;;;;;;;5.88;4.50;;;;;;;;;;10369651;28;20026;-53
2023/03/23 05:33:32;;;;;;;4.75;3.90;;;;;;;;;;10358467;28;20036;-53
2023/03/23 05:38:32;;;;;;;5.47;3.90;;;;;;;;;;10357233;28;20030;-53
2023/03/23 05:43:33;;;;;;;5.32;4.28;;;;;;;;;;10363282;28;20035;-52
2023/03/23 05:48:34;;;;;;;4.30;3.90;;;;;;;;;;10364721;28;20109;-51
2023/03/23 05:53:35;;;;;;;7.97;4.45;;;;;;;;;;10364517;28;20201;-53
2023/03/23 05:58:36;;;;;;;4.40;3.90;;;;;;;;;;10357426;28;20206;-51
2023/03/23 06:03:36;;;;;;;5.07;4.30;;;;;;;;;;10330527;28;20038;-53
2023/03/23 06:08:38;;;;;;;5.90;4.13;;;;;;;;;;10352720;28;20030;-53
2023/03/23 06:13:38;;;;;;;5.28;3.92;;;;;;;;;;10361772;28;20476;-53
2023/03/23 06:18:40;;;;;;;4.30;3.85;;;;;;;;;;10374220;28;20022;-52
2023/03/23 06:23:41;;;;;;;5.35;3.83;;;;;;;;;;10359842;28;20408;-51
2023/03/23 06:28:43;;;;;;;4.95;4.20;;;;;;;;;;10355860;28;20023;-53
2023/03/23 06:33:43;;;;;;;6.07;4.50;;;;;;;;;;10328177;28;20520;-52
2023/03/23 06:38:44;;;;;;;5.68;4.55;;;;;;;;;;10350957;28;20037;-52
2023/03/23 06:43:46;;;;;;;13.30;4.82;;;;;;;;;;10334186;28;20037;-52
2023/03/23 06:48:49;;;;;;;10.05;5.03;;;;;;;;;;10363940;28;20073;-54
2023/03/23 06:53:50;;;;;;;8.77;5.43;;;;;;;;;;10364253;28;20046;-54
2023/03/23 06:58:51;;;;;;;15.95;5.78;;;;;;;;;;10358915;28;20202;-53
2023/03/23 07:03:52;;;;;;;14.55;6.03;;;;;;;;;;10334524;28;20032;-54
2023/03/23 07:08:52;;;;;;;15.50;5.85;;;;;;;;;;10353941;28;20215;-52
2023/03/23 07:13:53;;;;;;;19.25;7.03;;;;;;;;;;10379377;28;20022;-59
2023/03/23 07:18:54;;;;;;;13.48;7.22;;;;;;;;;;10365837;28;20477;-51
2023/03/23 07:23:55;;;;;;;16.27;7.85;;;;;;;;;;10358926;28;20033;-51
2023/03/23 07:28:56;;;;;;;12.82;9.48;;;;;;;;;;10355824;28;20038;-55
2023/03/23 07:33:56;;;;;;;15.00;10.23;;;;;;;;;;10367770;28;20030;-59
2023/03/23 07:38:58;;;;;;;18.13;10.90;;;;;;;;;;10338415;28;20022;-51
2023/03/23 07:43:59;;;;;;;20.50;11.25;;;;;;;;;;10366276;28;20470;-50
2023/03/23 07:49:04;;;;;;;22.33;11.68;;;;;;;;;;10355204;28;20018;-54
2023/03/23 07:54:07;;;;;;;19.55;11.57;;;;;;;;;;10337070;28;20150;-61
2023/03/23 07:59:08;;;;;;;16.67;10.80;;;;;;;;;;10346077;28;20039;-62
2023/03/23 08:04:08;;;;;;;15.07;11.10;;;;;;;;;;10355642;28;20026;-61
2023/03/23 08:09:10;;;;;;;13.82;10.43;;;;;;;;;;10365697;28;20030;-58
2023/03/23 08:14:11;;;;;;;19.05;10.80;;;;;;;;;;10363651;28;20529;-52
2023/03/23 08:19:12;;;;;;;14.05;9.90;;;;;;;;;;10367878;28;20450;-52
2023/03/23 08:24:13;;;;;;;17.75;10.82;;;;;;;;;;10353945;28;20032;-54
2023/03/23 08:29:14;;;;;;;13.18;9.45;;;;;;;;;;10350562;28;20034;-54
2023/03/23 08:34:15;;;;;;;16.50;10.18;;;;;;;;;;10370190;28;20126;-60
2023/03/23 08:39:17;;;;;;;10.95;8.80;;;;;;;;;;10373092;28;20026;-61
2023/03/23 08:44:18;;;;;;;13.13;9.05;;;;;;;;;;10348210;28;20477;-60
2023/03/23 08:49:20;;;;;;;11.60;8.00;;;;;;;;;;10372672;28;20018;-51
2023/03/23 08:54:21;;;;;;;14.30;9.00;;;;;;;;;;10346789;28;20046;-53
2023/03/23 08:59:21;;;;;;;11.10;8.38;;;;;;;;;;10359181;28;20022;-53
2023/03/23 09:04:22;;;;;;;12.80;8.00;;;;;;;;;;10372984;28;20037;-54
2023/03/23 09:09:22;;;;;;;13.80;8.02;;;;;;;;;;10342733;28;20026;-54
2023/03/23 09:14:23;;;;;;;13.25;7.57;;;;;;;;;;10352042;28;20377;-54
2023/03/23 09:19:23;;;;;;;10.85;7.00;;;;;;;;;;10358351;28;20043;-52
2023/03/23 09:24:25;;;;;;;12.65;7.55;;;;;;;;;;10372879;28;20108;-50
2023/03/23 09:29:26;;;;;;;12.35;7.63;;;;;;;;;;10362038;28;20109;-50
2023/03/23 09:34:29;;;;;;;11.45;7.80;;;;;;;;;;10356407;28;20033;-52
2023/03/23 09:39:30;;;;;;;9.35;7.53;;;;;;;;;;10369927;28;20597;-55
2023/03/23 09:44:55;;;;;;;11.98;7.82;;;;;;;;;;10364930;28;20109;-54
2023/03/23 09:50:18;;;;;;;11.60;8.18;;;;;;;;;;10372001;28;20041;-51
2023/03/23 09:55:20;;;;;;;14.75;7.85;;;;;;;;;;10358262;28;20058;-55
2023/03/23 10:00:30;;;;;;;10.35;6.75;;;;;;;;;;10357071;28;20026;-54
2023/03/23 10:05:42;;;;;;;10.90;8.02;;;;;;;;;;10357842;28;20028;-52
2023/03/23 10:11:20;;;;;;;12.77;7.63;;;;;;;;;;10356879;28;20489;-51
2023/03/23 10:16:30;;;;;;;9.50;7.10;;;;;;;;;;10353245;28;20022;-53
2023/03/23 10:21:33;;;;;;;13.85;7.57;;;;;;;;;;10349743;28;20496;-52
2023/03/23 10:27:21;;;;;;;12.20;6.85;;;;;;;;;;10365698;28;20022;-52
2023/03/23 10:33:00;;;;;;;9.55;7.20;;;;;;;;;;10341938;28;20031;-51
2023/03/23 10:38:09;;;;;;;8.68;6.40;;;;;;;;;;10334924;28;20128;-51
2023/03/23 10:43:09;;;;;;;;;;;;;;;;;;10343211;28;20402;-51
2023/03/23 10:48:36;;;;;;;11.77;6.70;;;;;;;;;;10366920;28;19917;-51
2023/03/23 10:54:00;;;;;;;8.00;6.28;;;;;;;;;;10339357;28;20065;-48
2023/03/23 10:59:20;;;;;;;10.57;6.88;;;;;;;;;;10333233;28;20029;-49
2023/03/23 11:04:23;;;;;;;8.93;5.70;;;;;;;;;;10368160;28;20030;-51
2023/03/23 11:09:40;;;;;;;10.77;5.90;;;;;;;;;;10367085;28;20028;-52
2023/03/23 11:14:42;;;;;;;6.40;5.57;;;;;;;;;;10355598;28;20030;-48
2023/03/23 11:19:43;;;;;;;9.23;5.57;;;;;;;;;;10367867;28;20199;-54
2023/03/23 11:24:47;;;;;;;10.05;5.55;;;;;;;;;;10367433;28;20033;-51
2023/03/23 11:30:00;;;;;;;7.10;5.88;;;;;;;;;;10354728;28;20084;-49
2023/03/23 11:35:05;;;;;;;6.60;5.63;;;;;;;;;;10351636;28;20091;-51
2023/03/23 11:40:09;;;;;;;7.28;5.25;;;;;;;;;;10356809;28;20084;-52
2023/03/23 11:45:24;;;;;;;7.30;5.47;;;;;;;;;;10366390;28;20087;-50
2023/03/23 11:50:32;;;;;;;7.20;5.45;;;;;;;;;;10356050;28;20041;-50
2023/03/23 11:55:57;;;;;;;8.55;5.50;;;;;;;;;;10338763;28;20104;-50
2023/03/23 12:01:08;;;;;;;7.25;5.55;;;;;;;;;;10361377;28;20044;-46
2023/03/23 12:06:12;;;;;;;7.22;5.15;;;;;;;;;;10363463;28;20553;-51
2023/03/23 12:11:41;;;;;;;7.85;5.55;;;;;;;;;;10350926;28;20030;-49
2023/03/23 12:17:05;;;;;;;7.05;5.35;;;;;;;;;;10373959;28;20037;-48
2023/03/23 12:22:15;;;;;;;5.40;4.63;;;;;;;;;;10375488;28;20037;-52
2023/03/23 12:27:29;;;;;;;6.97;5.85;;;;;;;;;;10366106;28;20505;-52
2023/03/23 12:32:57;;;;;;;6.97;5.68;;;;;;;;;;10357967;28;20273;-50
2023/03/23 12:38:34;;;;;;;7.32;5.38;;;;;;;;;;10377157;28;20371;-48
2023/03/23 12:43:45;;;;;;;7.00;5.68;;;;;;;;;;10367343;28;20032;-48
2023/03/23 12:48:54;;;;;;;8.80;5.22;;;;;;;;;;10334570;28;20031;-52
2023/03/23 12:54:11;;;;;;;6.70;5.18;;;;;;;;;;10330116;28;20054;-46
2023/03/23 12:59:36;;;;;;;5.20;4.47;;;;;;;;;;10339014;28;20033;-51
2023/03/23 13:04:47;;;;;;;7.35;5.35;;;;;;;;;;10353146;28;20049;-50
2023/03/23 13:10:45;;;;;;;5.80;4.97;;;;;;;;;;10359792;28;20022;-50
2023/03/23 13:16:24;;;;;;;8.75;6.25;;;;;;;;;;10366501;28;20129;-46
2023/03/23 13:21:38;;;;;;;10.48;5.75;;;;;;;;;;10368147;28;20041;-51
2023/03/23 13:26:42;;;;;;;6.65;5.72;;;;;;;;;;10363431;28;20030;-50
2023/03/23 13:31:43;;;;;;;10.15;5.32;;;;;;;;;;10341239;28;20042;-50
2023/03/23 13:36:55;;;;;;;7.75;5.32;;;;;;;;;;10342143;28;20041;-50
2023/03/23 13:42:08;;;;;;;10.60;5.20;;;;;;;;;;10338810;28;20058;-50
2023/03/23 13:47:25;;;;;;;5.57;4.95;;;;;;;;;;10334929;28;20279;-54
2023/03/23 13:52:44;;;;;;;8.40;6.25;;;;;;;;;;10341664;28;20611;-52
2023/03/23 13:58:03;;;;;;;5.85;5.25;;;;;;;;;;10348442;28;20035;-52
2023/03/23 14:03:25;;;;;;;11.88;5.93;;;;;;;;;;10353004;28;20026;-55
2023/03/23 14:08:28;;;;;;;9.00;5.18;;;;;;;;;;10367140;28;20052;-52
2023/03/23 14:14:06;;;;;;;6.25;5.65;;;;;;;;;;10360034;28;20033;-54
2023/03/23 14:19:33;;;;;;;8.80;6.35;;;;;;;;;;10364555;28;20030;-52
2023/03/23 14:24:40;;;;;;;9.80;7.38;;;;;;;;;;10354758;28;20068;-57
2023/03/23 14:29:41;;;;;;;8.80;6.65;;;;;;;;;;10334319;28;20038;-55
2023/03/23 14:34:42;;;;;;;8.35;6.50;;;;;;;;;;10369494;28;20033;-50
2023/03/23 14:39:53;;;;;;;8.20;6.70;;;;;;;;;;10364923;28;20033;-52
2023/03/23 14:44:54;;;;;;;8.40;6.82;;;;;;;;;;10348829;28;20110;-51
2023/03/23 14:49:58;;;;;;;10.13;6.68;;;;;;;;;;10364724;28;20034;-50
2023/03/23 14:55:22;;;;;;;11.55;6.60;;;;;;;;;;10372290;28;20054;-62
2023/03/23 15:00:33;;;;;;;35.80;7.63;;;;;;;;;;10374841;28;20486;-54
2023/03/23 15:05:39;;;;;;;33.40;7.97;;;;;;;;;;10374614;28;20125;-47
2023/03/23 15:11:19;;;;;;;26.80;6.93;;;;;;;;;;10374350;28;20041;-50
2023/03/23 15:16:35;;;;;;;13.65;6.07;;;;;;;;;;10362185;28;20068;-51
2023/03/23 15:21:55;;;;;;;9.70;5.28;;;;;;;;;;10374096;28;20030;-50
2023/03/23 15:27:06;;;;;;;18.63;6.15;;;;;;;;;;10374777;28;20040;-53
2023/03/23 15:32:11;;;;;;;18.85;6.75;;;;;;;;;;10373945;28;20038;-52
2023/03/23 15:37:32;;;;;;;11.93;6.00;;;;;;;;;;10378345;28;20072;-52
2023/03/23 15:42:35;;;;;;;11.35;6.22;;;;;;;;;;10382690;28;20037;-50
2023/03/23 15:47:42;;;;;;;14.82;6.88;;;;;;;;;;10382024;28;20157;-50
2023/03/23 15:52:46;;;;;;;11.82;6.95;;;;;;;;;;10381417;28;20050;-52
2023/03/23 15:57:49;;;;;;;10.38;5.80;;;;;;;;;;10381521;28;20045;-50
2023/03/23 16:03:01;;;;;;;16.50;6.43;;;;;;;;;;10381115;28;20033;-52
2023/03/23 16:08:03;;;;;;;9.27;5.97;;;;;;;;;;10381077;28;20037;-50
2023/03/23 16:13:05;;;;;;;13.40;6.00;;;;;;;;;;10380819;28;20116;-52
2023/03/23 16:18:06;;;;;;;9.50;6.22;;;;;;;;;;10381373;28;20026;-52
2023/03/23 16:23:08;;;;;;;10.25;6.05;;;;;;;;;;10380386;28;20113;-54
2023/03/23 16:28:13;;;;;;;11.20;5.95;;;;;;;;;;10380982;28;20025;-49
2023/03/23 16:33:14;;;;;;;9.80;6.43;;;;;;;;;;10380111;28;20069;-51
2023/03/23 16:38:17;;;;;;;8.50;6.05;;;;;;;;;;10380529;28;20393;-51
2023/03/23 16:43:20;;;;;;;11.93;6.07;;;;;;;;;;10380357;28;20033;-56
2023/03/23 16:48:22;;;;;;;13.73;6.30;;;;;;;;;;10378400;28;20037;-54
2023/03/23 16:53:24;;;;;;;6.82;5.88;;;;;;;;;;10379098;28;20520;-57
2023/03/23 16:58:25;;;;;;;14.10;7.22;;;;;;;;;;10379270;28;20034;-55
2023/03/23 17:03:26;;;;;;;7.28;6.40;;;;;;;;;;10379027;28;20029;-56
2023/03/23 17:08:28;;;;;;;9.82;7.22;;;;;;;;;;10379059;28;20037;-57
2023/03/23 17:13:30;;;;;;;14.55;6.93;;;;;;;;;;10378383;28;20505;-54
2023/03/23 17:18:31;;;;;;;9.32;7.07;;;;;;;;;;10378935;28;20026;-57
2023/03/23 17:23:35;;;;;;;12.25;7.68;;;;;;;;;;10378187;28;20097;-55
2023/03/23 17:28:36;;;;;;;9.40;7.63;;;;;;;;;;10377738;28;20026;-57
2023/03/23 17:33:38;;;;;;;9.73;7.53;;;;;;;;;;10378269;28;20061;-51
2023/03/23 17:38:40;;;;;;;10.30;7.28;;;;;;;;;;10378265;28;20034;-51
2023/03/23 17:43:42;;;;;;;11.32;8.50;;;;;;;;;;10377427;28;20033;-54
2023/03/23 17:48:43;;;;;;;11.60;9.23;;;;;;;;;;10359694;28;20034;-58
2023/03/23 17:53:45;;;;;;;13.35;10.45;;;;;;;;;;10376801;28;20050;-50
2023/03/23 17:58:46;;;;;;;21.20;13.30;;;;;;;;;;10376448;28;20030;-55
2023/03/23 18:03:48;;;;;;;27.85;13.68;;;;;;;;;;10376725;28;20022;-59
2023/03/23 18:08:49;;;;;;;27.48;13.30;;;;;;;;;;10376830;28;20030;-57
2023/03/23 18:13:51;;;;;;;24.20;14.65;;;;;;;;;;10376010;28;20034;-55
2023/03/23 18:18:52;;;;;;;23.48;13.85;;;;;;;;;;10376813;28;20022;-52
2023/03/23 18:23:54;;;;;;;26.20;14.00;;;;;;;;;;10376572;28;20026;-50
2023/03/23 18:28:56;;;;;;;25.52;14.13;;;;;;;;;;10375741;28;20037;-52
2023/03/23 18:33:57;;;;;;;21.38;13.73;;;;;;;;;;10376099;28;20030;-53
2023/03/23 18:38:59;;;;;;;22.38;13.85;;;;;;;;;;10375222;28;20369;-50
2023/03/23 18:44:01;;;;;;;19.15;13.88;;;;;;;;;;10375118;28;20478;-51
2023/03/23 18:49:02;;;;;;;24.17;12.63;;;;;;;;;;10375744;28;20054;-54
2023/03/23 18:54:04;;;;;;;28.55;12.43;;;;;;;;;;10374673;28;20057;-49
2023/03/23 18:59:05;;;;;;;25.42;11.73;;;;;;;;;;10374769;28;20351;-48
2023/03/23 19:04:07;;;;;;;21.50;11.90;;;;;;;;;;10374600;28;20033;-48
2023/03/23 19:09:08;;;;;;;29.83;11.48;;;;;;;;;;10374301;28;20425;-52
2023/03/23 19:14:10;;;;;;;26.38;11.48;;;;;;;;;;10373925;28;20036;-51
2023/03/23 19:19:11;;;;;;;19.80;11.15;;;;;;;;;;10356829;28;20034;-49
2023/03/23 19:24:13;;;;;;;22.35;11.10;;;;;;;;;;10374154;28;20030;-52
2023/03/23 19:29:18;;;;;;;18.20;10.90;;;;;;;;;;10374842;28;20022;-49
2023/03/23 19:34:20;;;;;;;19.00;11.10;;;;;;;;;;10365444;28;20065;-51
2023/03/23 19:39:21;;;;;;;17.98;9.60;;;;;;;;;;10343361;28;20619;-52
2023/03/23 19:44:22;;;;;;;17.15;9.55;;;;;;;;;;10359352;28;20029;-52
2023/03/23 19:49:23;;;;;;;15.40;9.45;;;;;;;;;;10346191;28;20039;-49
2023/03/23 19:54:23;;;;;;;17.98;9.25;;;;;;;;;;10356030;28;20046;-51
2023/03/23 19:59:24;;;;;;;18.30;9.52;;;;;;;;;;10367879;28;20029;-49
2023/03/23 20:04:25;;;;;;;20.00;9.30;;;;;;;;;;10335017;28;20018;-51
2023/03/23 20:09:25;;;;;;;12.15;7.82;;;;;;;;;;10344549;28;20033;-49
2023/03/23 20:14:26;;;;;;;14.45;8.55;;;;;;;;;;10355148;28;20254;-56
2023/03/23 20:19:26;;;;;;;13.98;8.27;;;;;;;;;;10356029;28;20470;-54
2023/03/23 20:24:27;;;;;;;16.08;7.90;;;;;;;;;;10342235;28;20419;-52
2023/03/23 20:29:29;;;;;;;11.18;7.93;;;;;;;;;;10347547;28;20026;-52
2023/03/23 20:34:30;;;;;;;13.30;7.38;;;;;;;;;;10363559;28;20046;-52
2023/03/23 20:39:32;;;;;;;12.57;7.47;;;;;;;;;;10366973;28;20509;-53
2023/03/23 20:44:34;;;;;;;19.15;8.30;;;;;;;;;;10356157;28;20039;-55
2023/03/23 20:49:36;;;;;;;9.75;6.78;;;;;;;;;;10354800;28;20478;-53
2023/03/23 20:54:39;;;;;;;25.52;9.00;;;;;;;;;;10354127;28;20052;-53
2023/03/23 20:59:40;;;;;;;20.80;8.13;;;;;;;;;;10350402;28;20591;-53
2023/03/23 21:04:43;;;;;;;21.05;9.02;;;;;;;;;;10357414;28;20362;-48
2023/03/23 21:09:44;;;;;;;18.50;7.70;;;;;;;;;;10364958;28;20031;-53
2023/03/23 21:14:45;;;;;;;12.88;7.40;;;;;;;;;;10353323;28;20022;-53
2023/03/23 21:19:46;;;;;;;14.73;8.10;;;;;;;;;;10376229;28;20030;-53
2023/03/23 21:24:49;;;;;;;14.38;7.97;;;;;;;;;;10360268;28;20026;-48
2023/03/23 21:29:49;;;;;;;22.52;8.07;;;;;;;;;;10358400;28;20128;-52
2023/03/23 21:34:51;;;;;;;16.25;7.40;;;;;;;;;;10360921;28;20088;-54
2023/03/23 21:39:52;;;;;;;15.65;7.63;;;;;;;;;;10370086;28;20037;-51
2023/03/23 21:44:52;;;;;;;12.55;7.20;;;;;;;;;;10369950;28;20029;-49
2023/03/23 21:49:55;;;;;;;15.40;7.10;;;;;;;;;;10358221;28;20030;-52
2023/03/23 21:54:58;;;;;;;12.82;7.45;;;;;;;;;;10357051;28;20049;-51
2023/03/23 21:59:59;;;;;;;13.32;7.22;;;;;;;;;;10355766;28;20030;-49
2023/03/23 22:04:59;;;;;;;12.05;6.70;;;;;;;;;;10358454;28;20037;-53
2023/03/23 22:10:00;;;;;;;14.35;7.78;;;;;;;;;;10363623;28;20030;-49
2023/03/23 22:15:07;;;;;;;11.75;7.55;;;;;;;;;;10367824;28;20033;-52
2023/03/23 22:20:12;;;;;;;9.65;7.00;;;;;;;;;;10371624;28;20053;-51
2023/03/23 22:25:13;;;;;;;16.20;7.47;;;;;;;;;;10371110;28;20446;-55
2023/03/23 22:30:14;;;;;;;10.07;6.80;;;;;;;;;;10368664;28;20025;-51
2023/03/23 22:35:15;;;;;;;12.85;6.82;;;;;;;;;;10318125;28;20034;-53
2023/03/23 22:40:16;;;;;;;8.73;6.57;;;;;;;;;;10340525;28;20045;-53
2023/03/23 22:45:17;;;;;;;11.30;6.50;;;;;;;;;;10331480;28;20115;-53
2023/03/23 22:50:20;;;;;;;10.15;6.68;;;;;;;;;;10349952;28;20055;-53
2023/03/23 22:55:20;;;;;;;10.27;6.72;;;;;;;;;;10365641;28;20057;-53
2023/03/23 23:00:21;;;;;;;14.15;6.78;;;;;;;;;;10366067;28;20034;-53
2023/03/23 23:05:22;;;;;;;9.10;6.60;;;;;;;;;;10364969;28;20481;-52
2023/03/23 23:10:22;;;;;;;9.77;6.78;;;;;;;;;;10365851;28;20080;-53
2023/03/23 23:15:23;;;;;;;12.05;6.63;;;;;;;;;;10366686;28;20120;-52
2023/03/23 23:20:24;;;;;;;7.82;6.53;;;;;;;;;;10344658;28;20390;-49
2023/03/23 23:25:25;;;;;;;12.45;6.90;;;;;;;;;;10365371;28;20034;-53
2023/03/23 23:30:27;;;;;;;9.27;6.38;;;;;;;;;;10357483;28;20393;-53
2023/03/23 23:35:28;;;;;;;10.43;6.20;;;;;;;;;;10356484;28;20060;-51
2023/03/23 23:40:31;;;;;;;11.95;6.70;;;;;;;;;;10347221;28;20078;-52
2023/03/23 23:45:32;;;;;;;7.40;5.88;;;;;;;;;;10361035;28;20053;-51
2023/03/23 23:50:33;;;;;;;6.60;5.55;;;;;;;;;;10346119;28;20026;-51
2023/03/23 23:55:34;;;;;;;12.02;5.80;;;;;;;;;;10343560;28;20113;-51
